METAR Data
IDs: Format: Raw Decoded Include TAF

Data at: 1250 UTC 21 Oct 2018

KPSN 211235Z AUTO 03005KT 10SM CLR 12/07 A3032 RMK AO2 T01200073
KPSN 211215Z AUTO 02006KT 10SM CLR 12/07 A3032 RMK AO2 T01200077
KPSN 211155Z AUTO 02006KT 10SM CLR 12/07 A3032 RMK AO2 T01200080
KPSN 211135Z AUTO 03005KT 10SM CLR 12/07 A3031 RMK AO2 T01260080
KPSN 211115Z AUTO 01005KT 10SM CLR 12/08 A3031 RMK AO2 T01260082
KPSN 211055Z AUTO 36005KT 10SM CLR 12/08 A3030 RMK AO2 T01210085
KPSN 211035Z AUTO 01005KT 10SM CLR 12/08 A3030 RMK AO2 T01250088
KPSN 211015Z AUTO 02005KT 10SM CLR 12/08 A3030 RMK AO2 T01270090
KPSN 210955Z AUTO 01007KT 10SM CLR 12/08 A3029 RMK AO2 T01260091
KPSN 210935Z AUTO 01006KT 10SM CLR 12/08 A3029 RMK AO2 T01270091
KPSN 210915Z AUTO 02005KT 10SM CLR 12/08 A3029 RMK AO2 T01200090
KPSN 210855Z AUTO 03003KT 10SM CLR 11/08 A3029 RMK AO2 T01110091
KPSN 210835Z AUTO 00000KT 10SM CLR 10/08 A3029 RMK AO2 T01050091
KPSN 210815Z AUTO 36004KT 10SM CLR 11/09 A3028 RMK AO2 T01100092
KPSN 210755Z AUTO 01004KT 10SM CLR 11/09 A3029 RMK AO2 T01160094
KPSN 210735Z AUTO 02004KT 10SM CLR 11/10 A3029 RMK AO2 T01190098
KPSN 210715Z AUTO 01003KT 10SM CLR 11/10 A3029 RMK AO2 T01190100
KPSN 210655Z AUTO 36005KT 10SM CLR 12/10 A3029 RMK AO2 T01250101
KPSN 210635Z AUTO 01004KT 10SM CLR 13/10 A3029 RMK AO2 T01310105
KPSN 210615Z AUTO 02004KT 10SM CLR 13/10 A3028 RMK AO2 T01320105
KPSN 210555Z AUTO 01004KT 10SM CLR 13/10 A3028 RMK AO2 T01350105
KPSN 210535Z AUTO 01004KT 10SM CLR 13/10 A3028 RMK AO2 T01310106
KPSN 210515Z AUTO 01006KT 10SM CLR 13/11 A3028 RMK AO2 T01380108
KPSN 210455Z AUTO 01005KT 10SM CLR 13/11 A3028 RMK AO2 T01400110
KPSN 210435Z AUTO 01005KT 10SM CLR 14/11 A3029 RMK AO2 T01420114
KPSN 210415Z AUTO 01006KT 10SM CLR 14/12 A3028 RMK AO2 T01450120
KPSN 210355Z AUTO 36007KT 10SM CLR 13/13 A3028 RMK AO2 T01350132
KPSN 210335Z AUTO 36004KT 10SM CLR 13/13 A3028 RMK AO2 T01310131
KPSN 210315Z AUTO 36004KT 10SM CLR 13/13 A3028 RMK AO2 T01390138
KPSN 210255Z AUTO 00000KT 10SM CLR 13/13 A3027 RMK AO2 T01380136
KPSN 210235Z AUTO 36003KT 10SM CLR 13/13 A3026 RMK AO2 T01400140
KPSN 210215Z AUTO 34004KT 10SM CLR 15/15 A3026 RMK AO2 T01470147
KPSN 210155Z AUTO 34005KT 10SM CLR 15/15 A3025 RMK AO2 T01470147
KPSN 210135Z AUTO 34003KT 3SM BR CLR 15/15 A3024 RMK AO2 T01500150
KPSN 210115Z AUTO 00000KT 1/2SM FG VV005 15/15 A3024 RMK AO2 T01550155
KPSN 210055Z AUTO 00000KT 4SM BR CLR 15/15 A3023 RMK AO2 T01530153
KPSN 210035Z AUTO 00000KT 2SM BR CLR 15/15 A3023 RMK AO2 VIS 3/4V5 T01550155
KPSN 210015Z AUTO 00000KT 10SM CLR 16/16 A3022 RMK AO2 T01650161
KPSN 202355Z AUTO 00000KT 10SM CLR 16/15 A3021 RMK AO2 T01640155
KPSN 202335Z AUTO 00000KT 10SM CLR 18/16 A3020 RMK AO2 T01880162
KPSN 202315Z AUTO 00000KT 10SM CLR 19/16 A3020 RMK AO2 T01940161
KPSN 202255Z AUTO 02004KT 10SM CLR 20/16 A3019 RMK AO2 T02020161
KPSN 202235Z AUTO 01005KT 10SM CLR 20/16 A3019 RMK AO2 T02050159
KPSN 202215Z AUTO 01007KT 10SM CLR 20/16 A3019 RMK AO2 T02020158
KPSN 202155Z AUTO 35006G14KT 10SM CLR 20/15 A3019 RMK AO2 T02000155
KPSN 202135Z AUTO 35009KT 10SM SCT016 19/16 A3018 RMK AO2 T01960158
KPSN 202115Z AUTO 36009KT 10SM BKN016 18/15 A3018 RMK AO2 T01860155
KPSN 202055Z AUTO 36009KT 10SM BKN014 17/15 A3019 RMK AO2 T01790153
KPSN 202035Z AUTO 36006KT 10SM OVC014 17/15 A3020 RMK AO2 T01760151
KPSN 202015Z AUTO 01006KT 10SM OVC012 17/15 A3019 RMK AO2 T01700150
KPSN 201955Z AUTO 01006KT 10SM OVC008 16/15 A3019 RMK AO2 T01670150
KPSN 201935Z AUTO 36008KT 10SM OVC008 16/15 A3019 RMK AO2 T01650150
KPSN 201915Z AUTO 35010KT 10SM OVC008 16/15 A3019 RMK AO2 T01650150
KPSN 201855Z AUTO 34008KT 10SM OVC008 16/15 A3019 RMK AO2 T01650150
KPSN 201835Z AUTO 35006KT 10SM OVC010 16/15 A3020 RMK AO2 T01690151
KPSN 201815Z AUTO 35008KT 10SM OVC010 17/15 A3020 RMK AO2 T01700151
KPSN 201755Z AUTO 34009KT 10SM OVC010 17/15 A3020 RMK AO2 T01710152
KPSN 201735Z AUTO 36007KT 10SM OVC014 17/15 A3021 RMK AO2 T01760154
KPSN 201715Z AUTO 36009KT 10SM OVC012 17/15 A3022 RMK AO2 T01780153
KPSN 201655Z AUTO 03007KT 10SM BKN012 BKN034 OVC045 17/15 A3021 RMK AO2 T01770155
KPSN 201635Z AUTO 01006KT 10SM BKN012 OVC034 17/15 A3022 RMK AO2 T01740154
KPSN 201615Z AUTO 36005KT 10SM BKN012 OVC032 17/15 A3022 RMK AO2 T01710153
KPSN 201555Z AUTO 36004KT 10SM BKN012 OVC030 17/15 A3022 RMK AO2 T01700154
KPSN 201535Z AUTO 35007KT 10SM BKN010 OVC028 16/15 A3021 RMK AO2 T01690156
KPSN 201515Z AUTO 36007KT 10SM BKN008 OVC026 16/15 A3021 RMK AO2 T01650155
KPSN 201455Z AUTO 36007KT 10SM BKN008 OVC024 16/15 A3021 RMK AO2 T01630155
KPSN 201435Z AUTO 36006KT 10SM BKN008 OVC024 16/15 A3020 RMK AO2 T01590156
KPSN 201415Z AUTO 35004KT 10SM BKN008 OVC024 15/15 A3020 RMK AO2 T01570156
KPSN 201355Z AUTO 35007KT 10SM BKN010 OVC022 15/15 A3019 RMK AO2 T01550155
KPSN 201335Z AUTO 34005KT 10SM BKN006 OVC011 15/15 A3018 RMK AO2 T01520152
KPSN 201315Z AUTO 31005KT 10SM OVC006 15/15 A3018 RMK AO2 T01510151
KPSN 201255Z AUTO 34005KT 5SM BR OVC008 15/15 A3017 RMK AO2 T01510151
KPSN 201235Z AUTO 34006KT 10SM OVC008 15/15 A3017 RMK AO2 T01500150
KPSN 201215Z AUTO 35007KT 10SM OVC006 15/15 A3016 RMK AO2 T01500150
KPSN 201155Z AUTO 36007KT 10SM OVC006 15/15 A3016 RMK AO2 T01500150
KPSN 201135Z AUTO 35005KT 10SM OVC008 15/15 A3016 RMK AO2 T01500150
KPSN 201115Z AUTO 35007KT 3SM BR SCT003 OVC006 15/15 A3015 RMK AO2 T01500150
KPSN 201055Z AUTO 33008KT 4SM BR OVC004 15/15 A3015 RMK AO2 P0001 T01510151
KPSN 201035Z AUTO 33006KT 3SM -DZ OVC004 15/15 A3015 RMK AO2 P0001 T01540154
KPSN 201015Z AUTO 32006KT 2 1/2SM DZ OVC004 15/15 A3014 RMK AO2 T01550155
KPSN 200955Z AUTO 33005KT 2 1/2SM -RA OVC004 15/15 A3013 RMK AO2 T01550155
KPSN 200935Z AUTO 34005KT 7SM OVC004 15/15 A3013 RMK AO2 T01550155
KPSN 200915Z AUTO 34005KT 4SM BR OVC004 15/15 A3013 RMK AO2 T01550155
KPSN 200855Z AUTO 33005KT 2 1/2SM BR OVC004 15/15 A3013 RMK AO2 T01550155
KPSN 200835Z AUTO 32006KT 2 1/2SM BR OVC004 15/15 A3013 RMK AO2 T01550155
KPSN 200815Z AUTO 33005KT 3SM BR OVC004 15/15 A3013 RMK AO2 T01560156
KPSN 200755Z AUTO 32004KT 3SM BR OVC004 15/15 A3013 RMK AO2 T01560156
KPSN 200735Z AUTO 32005KT 5SM BR OVC004 15/15 A3013 RMK AO2 T01570157
KPSN 200715Z AUTO 32006KT 4SM BR OVC004 15/15 A3014 RMK AO2 T01570157
KPSN 200655Z AUTO 31006KT 3SM BR OVC002 16/16 A3014 RMK AO2 T01600160
KPSN 200635Z AUTO 30005KT 5SM BR OVC002 16/16 A3014 RMK AO2 T01600160
KPSN 200615Z AUTO 31007KT 5SM BR OVC002 16/16 A3014 RMK AO2 T01620162
KPSN 200555Z AUTO 31005KT 5SM BR OVC002 16/16 A3014 RMK AO2 P0001 T01630163
KPSN 200535Z AUTO 30007KT 5SM -DZ BKN002 OVC023 16/16 A3014 RMK AO2 P0001 T01640164
KPSN 200515Z AUTO 29004KT 10SM +DZ SCT004 OVC023 16/16 A3014 RMK AO2 P0001 T01680168
KPSN 200455Z AUTO 00000KT 10SM RA OVC025 16/16 A3013 RMK AO2 P0011 T01640164
KPSN 200435Z AUTO 12004KT 10SM -RA OVC027 16/16 A3014 RMK AO2 P0010 T01620162
KPSN 200415Z AUTO 12003KT 4SM RA SCT015 BKN024 OVC030 16/16 A3015 RMK AO2 P0008 T01620162
KPSN 200355Z AUTO 08003KT 2 1/2SM +RA SCT016 BKN029 OVC050 16/16 A3015 RMK AO2 VIS 1 3/4V4 P0029 T01600160
KPSN 200335Z AUTO 12004KT 4SM RA SCT033 BKN050 OVC060 16/16 A3015 RMK AO2 P0014 T01600160
KPSN 200315Z AUTO 13003KT 4SM +RA SCT030 BKN043 OVC060 16/16 A3015 RMK AO2 P0006 T01580158
KPSN 200255Z AUTO 00000KT 4SM +RA SCT006 BKN028 BKN041 15/15 A3016 RMK AO2 P0028 T01570157
KPSN 200235Z AUTO 34003KT 2 1/2SM +RA SCT002 BKN014 OVC025 15/15 A3016 RMK AO2 P0021 T01570157
KPSN 200215Z AUTO 02004KT 3SM +RA SCT002 BKN009 OVC022 15/15 A3016 RMK AO2 P0009 T01570157
KPSN 200155Z AUTO 00000KT 4SM +RA BKN004 OVC018 16/16 A3018 RMK AO2 P0017 T01580158
KPSN 200135Z AUTO 00000KT 4SM RA SCT004 BKN022 16/16 A3017 RMK AO2 P0007 T01590159
KPSN 200115Z AUTO 00000KT 7SM -RA SCT019 SCT095 16/16 A3016 RMK AO2 P0003 T01600160
KPSN 200055Z AUTO 00000KT 5SM +RA SCT017 SCT075 SCT100 16/16 A3015 RMK AO2 P0008 T01600160